Time,TemperatureF,DewpointF,PressureIn,WindDirection,WindDirectionDegrees,WindSpeedMPH,WindSpeedGustMPH,Humidity,HourlyPrecipIn,Conditions,Clouds,dailyrainin,SoftwareType,DateUTC
2013-03-05 00:04:00,64.2,41.2,29.74,SSE,153,10.0,10.0,43,0.00,,,0.00,Wunderground v.1.15,2013-03-05 06:04:00,
2013-03-05 00:09:00,64.1,41.1,29.74,SSE,163,9.0,10.0,43,0.00,,,0.00,Wunderground v.1.15,2013-03-05 06:09:00,
2013-03-05 00:19:00,63.7,41.4,29.74,SSE,159,9.0,9.0,44,0.00,,,0.00,Wunderground v.1.15,2013-03-05 06:19:00,
2013-03-05 00:24:00,63.4,41.7,29.74,South,169,9.0,10.0,45,0.00,,,0.00,Wunderground v.1.15,2013-03-05 06:24:00,
2013-03-05 00:29:00,63.5,41.8,29.74,SSE,162,10.0,11.0,45,0.00,,,0.00,Wunderground v.1.15,2013-03-05 06:29:00,
2013-03-05 00:34:00,63.8,42.0,29.74,SSE,158,11.0,14.0,45,0.00,,,0.00,Wunderground v.1.15,2013-03-05 06:34:00,
2013-03-05 00:39:00,63.9,42.7,29.74,SSE,155,13.0,14.0,46,0.00,,,0.00,Wunderground v.1.15,2013-03-05 06:39:00,
2013-03-05 00:44:00,63.6,43.0,29.74,South,179,12.0,12.0,47,0.00,,,0.00,Wunderground v.1.15,2013-03-05 06:44:00,
2013-03-05 00:49:00,63.3,42.7,29.75,South,176,11.0,12.0,47,0.00,,,0.00,Wunderground v.1.15,2013-03-05 06:49:00,
2013-03-05 00:54:00,63.1,43.6,29.75,South,169,11.0,12.0,49,0.00,,,0.00,Wunderground v.1.15,2013-03-05 06:54:00,
2013-03-05 00:59:00,63.5,44.0,29.75,South,177,11.0,14.0,49,0.00,,,0.00,Wunderground v.1.15,2013-03-05 06:59:00,
2013-03-05 01:04:00,63.6,44.6,29.74,SSE,158,13.0,13.0,50,0.00,,,0.00,Wunderground v.1.15,2013-03-05 07:04:00,
2013-03-05 01:09:00,63.6,45.1,29.75,SSE,161,13.0,13.0,51,0.00,,,0.00,Wunderground v.1.15,2013-03-05 07:09:00,
2013-03-05 01:14:00,63.3,44.9,29.75,SSE,161,11.0,11.0,51,0.00,,,0.00,Wunderground v.1.15,2013-03-05 07:14:00,
2013-03-05 01:24:00,63.1,46.2,29.75,South,189,11.0,13.0,54,0.00,,,0.00,Wunderground v.1.15,2013-03-05 07:24:00,
2013-03-05 01:29:00,63.9,46.9,29.76,South,175,12.0,13.0,54,0.00,,,0.00,Wunderground v.1.15,2013-03-05 07:29:00,
2013-03-05 01:34:00,64.3,46.8,29.76,South,173,11.0,11.0,53,0.00,,,0.00,Wunderground v.1.15,2013-03-05 07:34:00,
2013-03-05 01:39:00,64.6,47.1,29.77,SSW,197,10.0,11.0,53,0.00,,,0.00,Wunderground v.1.15,2013-03-05 07:39:00,
2013-03-05 01:44:00,65.1,42.6,29.85,WNW,299,12.0,17.0,44,0.00,,,0.00,Wunderground v.1.15,2013-03-05 07:44:00,
2013-03-05 01:54:00,67.7,38.3,29.85,WNW,291,14.0,14.0,34,0.00,,,0.00,Wunderground v.1.15,2013-03-05 07:54:00,
2013-03-05 01:59:00,68.8,36.9,29.87,WNW,296,13.0,21.0,31,0.00,,,0.00,Wunderground v.1.15,2013-03-05 07:59:00,
2013-03-05 02:04:00,69.9,35.3,29.87,NNW,347,15.0,17.0,28,0.00,,,0.00,Wunderground v.1.15,2013-03-05 08:04:00,
2013-03-05 02:09:00,66.5,36.5,29.89,NNW,334,22.0,30.0,33,0.00,,,0.00,Wunderground v.1.15,2013-03-05 08:09:00,
2013-03-05 02:14:00,62.7,42.2,29.89,NNW,329,27.0,27.0,47,0.00,,,0.00,Wunderground v.1.15,2013-03-05 08:14:00,
2013-03-05 02:19:00,60.3,42.6,29.91,NNW,331,28.0,28.0,52,0.00,,,0.00,Wunderground v.1.15,2013-03-05 08:19:00,
2013-03-05 02:29:00,56.8,41.7,29.94,NW,322,25.0,28.0,57,0.00,,,0.00,Wunderground v.1.15,2013-03-05 08:29:00,
2013-03-05 02:34:00,55.6,41.0,29.96,NW,308,24.0,33.0,58,0.00,,,0.00,Wunderground v.1.15,2013-03-05 08:34:00,
2013-03-05 02:39:00,53.9,40.3,29.96,NNW,337,25.0,36.0,60,0.00,,,0.00,Wunderground v.1.15,2013-03-05 08:39:00,
2013-03-05 02:44:00,52.9,39.8,29.97,NW,317,29.0,29.0,61,0.00,,,0.00,Wunderground v.1.15,2013-03-05 08:44:00,
2013-03-05 02:49:00,52.4,39.8,29.97,NNW,333,28.0,29.0,62,0.00,,,0.00,Wunderground v.1.15,2013-03-05 08:49:00,
2013-03-05 02:54:00,52.0,39.8,29.97,NW,323,26.0,26.0,63,0.00,,,0.00,Wunderground v.1.15,2013-03-05 08:54:00,
2013-03-05 03:04:00,51.0,38.8,29.98,NW,326,28.0,28.0,63,0.00,,,0.00,Wunderground v.1.15,2013-03-05 09:04:00,
2013-03-05 03:09:00,50.4,38.7,29.98,NNW,335,26.0,30.0,64,0.00,,,0.00,Wunderground v.1.15,2013-03-05 09:09:00,
2013-03-05 03:14:00,50.0,38.3,29.99,NW,313,25.0,26.0,64,0.00,,,0.00,Wunderground v.1.15,2013-03-05 09:14:00,
2013-03-05 03:19:00,49.6,37.9,30.00,NW,326,26.0,26.0,64,0.00,,,0.00,Wunderground v.1.15,2013-03-05 09:19:00,
2013-03-05 03:24:00,49.2,37.9,30.00,NW,310,24.0,24.0,65,0.00,,,0.00,Wunderground v.1.15,2013-03-05 09:24:00,
2013-03-05 03:34:00,48.6,37.4,30.01,NW,317,24.0,24.0,65,0.00,,,0.00,Wunderground v.1.15,2013-03-05 09:34:00,
2013-03-05 03:39:00,48.4,36.8,30.01,NNW,331,25.0,30.0,64,0.00,,,0.00,Wunderground v.1.15,2013-03-05 09:39:00,
2013-03-05 03:44:00,48.3,36.3,30.02,NNW,327,26.0,26.0,63,0.00,,,0.00,Wunderground v.1.15,2013-03-05 09:44:00,
2013-03-05 03:49:00,48.3,36.3,30.03,NW,312,27.0,27.0,63,0.00,,,0.00,Wunderground v.1.15,2013-03-05 09:49:00,
2013-03-05 03:54:00,48.1,36.1,30.03,NNW,333,27.0,27.0,63,0.00,,,0.00,Wunderground v.1.15,2013-03-05 09:54:00,
2013-03-05 03:59:00,48.0,36.0,30.03,NW,309,25.0,27.0,63,0.00,,,0.00,Wunderground v.1.15,2013-03-05 09:59:00,
2013-03-05 04:09:00,47.8,35.8,30.04,NW,318,27.0,27.0,63,0.00,,,0.00,Wunderground v.1.15,2013-03-05 10:09:00,
2013-03-05 04:14:00,47.7,35.3,30.05,NNW,328,28.0,28.0,62,0.00,,,0.00,Wunderground v.1.15,2013-03-05 10:14:00,
2013-03-05 04:19:00,47.7,35.3,30.06,NNW,332,28.0,28.0,62,0.00,,,0.00,Wunderground v.1.15,2013-03-05 10:19:00,
2013-03-05 04:24:00,47.6,35.2,30.07,NW,320,25.0,25.0,62,0.00,,,0.00,Wunderground v.1.15,2013-03-05 10:24:00,
2013-03-05 04:29:00,47.5,35.1,30.08,NW,319,24.0,29.0,62,0.00,,,0.00,Wunderground v.1.15,2013-03-05 10:29:00,
2013-03-05 04:39:00,47.5,34.7,30.09,NW,320,26.0,28.0,61,0.00,,,0.00,Wunderground v.1.15,2013-03-05 10:39:00,
2013-03-05 04:44:00,47.4,34.6,30.10,NW,322,25.0,27.0,61,0.00,,,0.00,Wunderground v.1.15,2013-03-05 10:44:00,
2013-03-05 04:49:00,47.2,34.8,30.11,NW,319,22.0,27.0,62,0.00,,,0.00,Wunderground v.1.15,2013-03-05 10:49:00,
2013-03-05 04:54:00,47.1,34.7,30.11,NW,306,20.0,20.0,62,0.00,,,0.00,Wunderground v.1.15,2013-03-05 10:54:00,
2013-03-05 04:59:00,47.0,34.6,30.11,NW,323,19.0,20.0,62,0.00,,,0.00,Wunderground v.1.15,2013-03-05 10:59:00,
2013-03-05 05:04:00,47.0,34.6,30.12,NNW,327,21.0,21.0,62,0.00,,,0.00,Wunderground v.1.15,2013-03-05 11:04:00,
2013-03-05 05:14:00,46.9,33.7,30.13,NW,313,25.0,28.0,60,0.00,,,0.00,Wunderground v.1.15,2013-03-05 11:14:00,
2013-03-05 05:19:00,46.8,34.0,30.13,NW,322,23.0,28.0,61,0.00,,,0.00,Wunderground v.1.15,2013-03-05 11:19:00,
2013-03-05 05:24:00,46.8,33.6,30.14,NW,326,22.0,23.0,60,0.00,,,0.00,Wunderground v.1.15,2013-03-05 11:24:00,
2013-03-05 05:29:00,46.8,33.6,30.14,NNW,343,24.0,25.0,60,0.00,,,0.00,Wunderground v.1.15,2013-03-05 11:29:00,
2013-03-05 05:34:00,46.8,33.6,30.14,North,2,24.0,24.0,60,0.00,,,0.00,Wunderground v.1.15,2013-03-05 11:34:00,
2013-03-05 05:44:00,46.7,33.5,30.15,NNW,333,20.0,25.0,60,0.00,,,0.00,Wunderground v.1.15,2013-03-05 11:44:00,
2013-03-05 05:49:00,46.6,33.4,30.16,North,2,20.0,26.0,60,0.00,,,0.00,Wunderground v.1.15,2013-03-05 11:49:00,
2013-03-05 05:54:00,46.7,33.1,30.16,NW,310,22.0,22.0,59,0.00,,,0.00,Wunderground v.1.15,2013-03-05 11:54:00,
2013-03-05 05:59:00,46.6,33.0,30.16,NW,322,23.0,25.0,59,0.00,,,0.00,Wunderground v.1.15,2013-03-05 11:59:00,
2013-03-05 06:04:00,46.6,33.0,30.16,NW,322,22.0,22.0,59,0.00,,,0.00,Wunderground v.1.15,2013-03-05 12:04:00,
2013-03-05 06:09:00,46.6,33.0,30.17,NW,324,23.0,23.0,59,0.00,,,0.00,Wunderground v.1.15,2013-03-05 12:09:00,
2013-03-05 06:19:00,46.4,32.8,30.17,NNW,330,20.0,23.0,59,0.00,,,0.00,Wunderground v.1.15,2013-03-05 12:19:00,
2013-03-05 06:24:00,46.3,32.7,30.18,NNW,334,20.0,29.0,59,0.00,,,0.00,Wunderground v.1.15,2013-03-05 12:24:00,
2013-03-05 06:29:00,46.2,32.7,30.18,NNW,334,20.0,29.0,59,0.00,,,0.00,Wunderground v.1.15,2013-03-05 12:29:00,
2013-03-05 06:34:00,46.1,32.6,30.19,NNW,329,19.0,19.0,59,0.00,,,0.00,Wunderground v.1.15,2013-03-05 12:34:00,
2013-03-05 06:39:00,46.0,32.5,30.19,NNW,329,18.0,19.0,59,0.00,,,0.00,Wunderground v.1.15,2013-03-05 12:39:00,
2013-03-05 06:49:00,45.9,32.8,30.19,NW,322,18.0,20.0,60,0.00,,,0.00,Wunderground v.1.15,2013-03-05 12:49:00,
2013-03-05 06:54:00,45.8,32.3,30.19,NNW,337,19.0,22.0,59,0.00,,,0.00,Wunderground v.1.15,2013-03-05 12:54:00,
2013-03-05 07:04:00,45.5,32.4,30.21,NW,314,16.0,16.0,60,0.00,,,0.00,Wunderground v.1.15,2013-03-05 13:04:00,
2013-03-05 07:09:00,45.4,32.3,30.21,NNW,348,15.0,21.0,60,0.00,,,0.00,Wunderground v.1.15,2013-03-05 13:09:00,
2013-03-05 07:14:00,45.5,32.4,30.21,NNW,328,18.0,21.0,60,0.00,,,0.00,Wunderground v.1.15,2013-03-05 13:14:00,
2013-03-05 07:19:00,45.5,32.4,30.21,NW,326,20.0,21.0,60,0.00,,,0.00,Wunderground v.1.15,2013-03-05 13:19:00,
2013-03-05 07:24:00,45.5,32.0,30.21,NNW,348,19.0,19.0,59,0.00,,,0.00,Wunderground v.1.15,2013-03-05 13:24:00,
2013-03-05 07:29:00,45.6,32.1,30.22,NW,324,18.0,23.0,59,0.00,,,0.00,Wunderground v.1.15,2013-03-05 13:29:00,
2013-03-05 07:34:00,45.7,31.8,30.23,NW,320,18.0,20.0,58,0.00,,,0.00,Wunderground v.1.15,2013-03-05 13:34:00,
2013-03-05 07:39:00,45.9,31.5,30.23,NNW,328,20.0,26.0,57,0.00,,,0.00,Wunderground v.1.15,2013-03-05 13:39:00,
2013-03-05 07:44:00,46.0,31.6,30.23,NW,324,21.0,21.0,57,0.00,,,0.00,Wunderground v.1.15,2013-03-05 13:44:00,
2013-03-05 07:54:00,46.1,31.7,30.24,NW,316,19.0,23.0,57,0.00,,,0.00,Wunderground v.1.15,2013-03-05 13:54:00,
2013-03-05 08:04:00,46.2,31.8,30.25,WNW,303,21.0,21.0,57,0.00,,,0.00,Wunderground v.1.15,2013-03-05 14:04:00,
2013-03-05 08:09:00,46.4,31.1,30.25,NNW,331,20.0,22.0,55,0.00,,,0.00,Wunderground v.1.15,2013-03-05 14:09:00,
2013-03-05 08:14:00,46.5,30.7,30.25,NW,317,20.0,20.0,54,0.00,,,0.00,Wunderground v.1.15,2013-03-05 14:14:00,
2013-03-05 08:19:00,46.7,30.0,30.25,NNW,334,21.0,21.0,52,0.00,,,0.00,Wunderground v.1.15,2013-03-05 14:19:00,
2013-03-05 08:29:00,47.0,27.8,30.25,NNW,333,21.0,26.0,47,0.00,,,0.00,Wunderground v.1.15,2013-03-05 14:29:00,
2013-03-05 08:34:00,47.1,26.8,30.26,NW,322,23.0,31.0,45,0.00,,,0.00,Wunderground v.1.15,2013-03-05 14:34:00,
2013-03-05 08:39:00,47.2,25.8,30.26,North,351,24.0,31.0,43,0.00,,,0.00,Wunderground v.1.15,2013-03-05 14:39:00,
2013-03-05 08:44:00,47.4,24.9,30.27,NW,314,24.0,24.0,41,0.00,,,0.00,Wunderground v.1.15,2013-03-05 14:44:00,
2013-03-05 08:54:00,48.5,24.6,30.27,NNW,336,20.0,26.0,39,0.00,,,0.00,Wunderground v.1.15,2013-03-05 14:54:00,
2013-03-05 09:04:00,48.4,22.0,30.28,NNW,343,24.0,25.0,35,0.00,,,0.00,Wunderground v.1.15,2013-03-05 15:04:00,
2013-03-05 09:09:00,48.5,22.1,30.29,North,2,22.0,25.0,35,0.00,,,0.00,Wunderground v.1.15,2013-03-05 15:09:00,
2013-03-05 09:14:00,48.7,24.2,30.29,North,359,20.0,25.0,38,0.00,,,0.00,Wunderground v.1.15,2013-03-05 15:14:00,
2013-03-05 09:19:00,48.9,22.4,30.29,NW,321,19.0,25.0,35,0.00,,,0.00,Wunderground v.1.15,2013-03-05 15:19:00,
2013-03-05 09:24:00,48.7,20.8,30.29,NNW,333,22.0,23.0,33,0.00,,,0.00,Wunderground v.1.15,2013-03-05 15:24:00,
2013-03-05 09:34:00,49.1,20.5,30.29,NNW,331,25.0,26.0,32,0.00,,,0.00,Wunderground v.1.15,2013-03-05 15:34:00,
2013-03-05 09:39:00,49.2,19.8,30.29,NNW,327,26.0,28.0,31,0.00,,,0.00,Wunderground v.1.15,2013-03-05 15:39:00,
2013-03-05 09:44:00,49.2,19.8,30.29,NNW,338,26.0,26.0,31,0.00,,,0.00,Wunderground v.1.15,2013-03-05 15:44:00,
2013-03-05 09:54:00,49.6,20.9,30.30,NW,326,23.0,25.0,32,0.00,,,0.00,Wunderground v.1.15,2013-03-05 15:54:00,
2013-03-05 10:04:00,49.7,20.2,30.30,NW,319,24.0,24.0,31,0.00,,,0.00,Wunderground v.1.15,2013-03-05 16:04:00,
2013-03-05 10:09:00,49.7,21.0,30.30,NNW,336,22.0,24.0,32,0.00,,,0.00,Wunderground v.1.15,2013-03-05 16:09:00,
2013-03-05 10:14:00,49.8,19.6,30.30,NW,319,22.0,32.0,30,0.00,,,0.00,Wunderground v.1.15,2013-03-05 16:14:00,
2013-03-05 10:19:00,49.9,20.4,30.30,NW,320,23.0,32.0,31,0.00,,,0.00,Wunderground v.1.15,2013-03-05 16:19:00,
2013-03-05 10:24:00,49.9,20.4,30.30,NW,314,24.0,24.0,31,0.00,,,0.00,Wunderground v.1.15,2013-03-05 16:24:00,
2013-03-05 10:29:00,50.1,19.8,30.31,NNW,340,23.0,24.0,30,0.00,,,0.00,Wunderground v.1.15,2013-03-05 16:29:00,
2013-03-05 10:34:00,50.4,20.1,30.31,NNW,331,20.0,20.0,30,0.00,,,0.00,Wunderground v.1.15,2013-03-05 16:34:00,
2013-03-05 10:39:00,51.1,19.1,30.31,NW,321,18.0,20.0,28,0.00,,,0.00,Wunderground v.1.15,2013-03-05 16:39:00,
2013-03-05 10:44:00,51.2,19.2,30.31,NW,324,20.0,24.0,28,0.00,,,0.00,Wunderground v.1.15,2013-03-05 16:44:00,
2013-03-05 10:54:00,51.9,18.0,30.31,North,359,19.0,19.0,26,0.00,,,0.00,Wunderground v.1.15,2013-03-05 16:54:00,
2013-03-05 11:04:00,52.4,17.6,30.31,NNW,327,20.0,20.0,25,0.00,,,0.00,Wunderground v.1.15,2013-03-05 17:04:00,
2013-03-05 11:09:00,52.7,16.9,30.31,NNW,328,21.0,22.0,24,0.00,,,0.00,Wunderground v.1.15,2013-03-05 17:09:00,
2013-03-05 11:14:00,53.0,15.1,30.31,NW,322,21.0,22.0,22,0.00,,,0.00,Wunderground v.1.15,2013-03-05 17:14:00,
2013-03-05 11:24:00,53.6,15.6,30.31,NW,319,17.0,19.0,22,0.00,,,0.00,Wunderground v.1.15,2013-03-05 17:24:00,
2013-03-05 11:29:00,53.7,14.6,30.31,NNW,334,19.0,20.0,21,0.00,,,0.00,Wunderground v.1.15,2013-03-05 17:29:00,
2013-03-05 11:34:00,53.8,15.8,30.32,NNW,327,20.0,20.0,22,0.00,,,0.00,Wunderground v.1.15,2013-03-05 17:34:00,
2013-03-05 11:44:00,54.5,15.3,30.32,NNW,330,19.0,22.0,21,0.00,,,0.00,Wunderground v.1.15,2013-03-05 17:44:00,
2013-03-05 11:49:00,54.8,15.6,30.31,NNW,333,18.0,22.0,21,0.00,,,0.00,Wunderground v.1.15,2013-03-05 17:49:00,
2013-03-05 11:54:00,55.6,16.2,30.31,North,355,18.0,20.0,21,0.00,,,0.00,Wunderground v.1.15,2013-03-05 17:54:00,
2013-03-05 12:04:00,55.7,14.0,30.31,NW,307,17.0,19.0,19,0.00,,,0.00,Wunderground v.1.15,2013-03-05 18:04:00,
2013-03-05 12:09:00,55.4,13.8,30.31,NW,315,20.0,24.0,19,0.00,,,0.00,Wunderground v.1.15,2013-03-05 18:09:00,
2013-03-05 12:19:00,55.8,14.1,30.30,NNW,335,20.0,21.0,19,0.00,,,0.00,Wunderground v.1.15,2013-03-05 18:19:00,
2013-03-05 12:24:00,56.3,14.5,30.30,NW,314,18.0,26.0,19,0.00,,,0.00,Wunderground v.1.15,2013-03-05 18:24:00,
2013-03-05 12:29:00,56.1,13.1,30.30,NW,309,19.0,26.0,18,0.00,,,0.00,Wunderground v.1.15,2013-03-05 18:29:00,
2013-03-05 12:34:00,56.2,13.2,30.30,NNW,331,20.0,22.0,18,0.00,,,0.00,Wunderground v.1.15,2013-03-05 18:34:00,
2013-03-05 12:39:00,56.3,12.0,30.30,NW,316,19.0,22.0,17,0.00,,,0.00,Wunderground v.1.15,2013-03-05 18:39:00,
2013-03-05 12:49:00,56.5,13.4,30.29,North,349,17.0,18.0,18,0.00,,,0.00,Wunderground v.1.15,2013-03-05 18:49:00,
2013-03-05 12:54:00,56.8,12.4,30.30,NNW,333,20.0,20.0,17,0.00,,,0.00,Wunderground v.1.15,2013-03-05 18:54:00,
2013-03-05 13:04:00,57.5,13.0,30.29,NNE,14,18.0,21.0,17,0.00,,,0.00,Wunderground v.1.15,2013-03-05 19:04:00,
2013-03-05 13:09:00,57.3,12.8,30.29,North,357,17.0,21.0,17,0.00,,,0.00,Wunderground v.1.15,2013-03-05 19:09:00,
2013-03-05 13:14:00,57.3,12.8,30.29,NW,326,17.0,17.0,17,0.00,,,0.00,Wunderground v.1.15,2013-03-05 19:14:00,
2013-03-05 13:19:00,57.4,12.9,30.29,WNW,295,18.0,19.0,17,0.00,,,0.00,Wunderground v.1.15,2013-03-05 19:19:00,
2013-03-05 13:24:00,57.4,12.9,30.29,NW,313,19.0,19.0,17,0.00,,,0.00,Wunderground v.1.15,2013-03-05 19:24:00,
2013-03-05 13:29:00,57.8,14.5,30.29,NW,317,17.0,19.0,18,0.00,,,0.00,Wunderground v.1.15,2013-03-05 19:29:00,
2013-03-05 13:34:00,58.2,16.1,30.29,WNW,295,15.0,19.0,19,0.00,,,0.00,Wunderground v.1.15,2013-03-05 19:34:00,
2013-03-05 13:39:00,58.0,14.7,30.28,WNW,290,16.0,20.0,18,0.00,,,0.00,Wunderground v.1.15,2013-03-05 19:39:00,
2013-03-05 13:44:00,58.3,13.6,30.28,NNW,331,16.0,19.0,17,0.00,,,0.00,Wunderground v.1.15,2013-03-05 19:44:00,
2013-03-05 13:49:00,58.3,13.6,30.28,NW,316,16.0,19.0,17,0.00,,,0.00,Wunderground v.1.15,2013-03-05 19:49:00,
2013-03-05 13:54:00,58.4,13.7,30.28,North,357,17.0,17.0,17,0.00,,,0.00,Wunderground v.1.15,2013-03-05 19:54:00,
2013-03-05 14:04:00,58.9,15.4,30.28,NNW,333,16.0,16.0,18,0.00,,,0.00,Wunderground v.1.15,2013-03-05 20:04:00,
2013-03-05 14:09:00,59.1,12.9,30.27,North,350,15.0,16.0,16,0.00,,,0.00,Wunderground v.1.15,2013-03-05 20:09:00,
2013-03-05 14:14:00,58.8,11.2,30.27,NW,310,17.0,26.0,15,0.00,,,0.00,Wunderground v.1.15,2013-03-05 20:14:00,
2013-03-05 14:19:00,58.6,11.0,30.28,NW,312,18.0,26.0,15,0.00,,,0.00,Wunderground v.1.15,2013-03-05 20:19:00,
2013-03-05 14:29:00,59.0,11.3,30.27,NNW,337,16.0,20.0,15,0.00,,,0.00,Wunderground v.1.15,2013-03-05 20:29:00,
2013-03-05 14:34:00,59.1,11.4,30.27,WNW,297,16.0,20.0,15,0.00,,,0.00,Wunderground v.1.15,2013-03-05 20:34:00,
2013-03-05 14:39:00,59.3,8.4,30.28,NW,309,17.0,20.0,13,0.00,,,0.00,Wunderground v.1.15,2013-03-05 20:39:00,
2013-03-05 14:49:00,59.1,8.2,30.28,NW,319,17.0,21.0,13,0.00,,,0.00,Wunderground v.1.15,2013-03-05 20:49:00,
2013-03-05 14:54:00,59.0,6.4,30.28,NW,305,18.0,20.0,12,0.00,,,0.00,Wunderground v.1.15,2013-03-05 20:54:00,
2013-03-05 15:04:00,59.3,8.4,30.28,NW,317,19.0,19.0,13,0.00,,,0.00,Wunderground v.1.15,2013-03-05 21:04:00,
2013-03-05 15:14:00,59.1,9.9,30.27,NNW,340,15.0,15.0,14,0.00,,,0.00,Wunderground v.1.15,2013-03-05 21:14:00,
2013-03-05 15:19:00,59.3,8.4,30.27,NW,306,15.0,18.0,13,0.00,,,0.00,Wunderground v.1.15,2013-03-05 21:19:00,
2013-03-05 15:24:00,59.6,8.6,30.28,NW,313,14.0,20.0,13,0.00,,,0.00,Wunderground v.1.15,2013-03-05 21:24:00,
2013-03-05 15:29:00,59.5,6.8,30.28,NW,323,15.0,20.0,12,0.00,,,0.00,Wunderground v.1.15,2013-03-05 21:29:00,
2013-03-05 15:34:00,59.8,7.0,30.28,NW,319,15.0,15.0,12,0.00,,,0.00,Wunderground v.1.15,2013-03-05 21:34:00,
2013-03-05 15:39:00,60.0,5.2,30.28,North,359,15.0,15.0,11,0.00,,,0.00,Wunderground v.1.15,2013-03-05 21:39:00,
2013-03-05 15:44:00,59.9,5.2,30.28,North,1,14.0,16.0,11,0.00,,,0.00,Wunderground v.1.15,2013-03-05 21:44:00,
2013-03-05 15:49:00,59.8,7.0,30.28,NNW,327,14.0,16.0,12,0.00,,,0.00,Wunderground v.1.15,2013-03-05 21:49:00,
2013-03-05 15:54:00,59.8,7.0,30.28,NW,312,14.0,14.0,12,0.00,,,0.00,Wunderground v.1.15,2013-03-05 21:54:00,
2013-03-05 16:04:00,59.8,7.0,30.27,North,359,15.0,15.0,12,0.00,,,0.00,Wunderground v.1.15,2013-03-05 22:04:00,
2013-03-05 16:09:00,59.6,8.6,30.27,North,4,15.0,15.0,13,0.00,,,0.00,Wunderground v.1.15,2013-03-05 22:09:00,
2013-03-05 16:14:00,59.7,6.9,30.27,NW,307,15.0,18.0,12,0.00,,,0.00,Wunderground v.1.15,2013-03-05 22:14:00,
2013-03-05 16:19:00,59.9,7.1,30.28,NNW,329,15.0,18.0,12,0.00,,,0.00,Wunderground v.1.15,2013-03-05 22:19:00,
2013-03-05 16:24:00,59.9,7.1,30.27,North,352,15.0,15.0,12,0.00,,,0.00,Wunderground v.1.15,2013-03-05 22:24:00,
2013-03-05 16:34:00,59.4,6.7,30.28,NW,325,15.0,15.0,12,0.00,,,0.00,Wunderground v.1.15,2013-03-05 22:34:00,
2013-03-05 16:39:00,59.4,6.7,30.28,NW,316,14.0,16.0,12,0.00,,,0.00,Wunderground v.1.15,2013-03-05 22:39:00,
2013-03-05 16:44:00,59.4,8.5,30.28,NW,314,15.0,15.0,13,0.00,,,0.00,Wunderground v.1.15,2013-03-05 22:44:00,
2013-03-05 16:49:00,59.5,6.8,30.28,NW,320,14.0,15.0,12,0.00,,,0.00,Wunderground v.1.15,2013-03-05 22:49:00,
2013-03-05 16:54:00,59.4,6.7,30.28,NW,319,13.0,16.0,12,0.00,,,0.00,Wunderground v.1.15,2013-03-05 22:54:00,
2013-03-05 17:04:00,59.1,8.2,30.28,NW,319,14.0,14.0,13,0.00,,,0.00,Wunderground v.1.15,2013-03-05 23:04:00,
2013-03-05 17:09:00,59.1,8.2,30.28,NW,316,14.0,14.0,13,0.00,,,0.00,Wunderground v.1.15,2013-03-05 23:09:00,
2013-03-05 17:14:00,59.1,9.9,30.28,NNW,329,13.0,13.0,14,0.00,,,0.00,Wunderground v.1.15,2013-03-05 23:14:00,
2013-03-05 17:19:00,59.1,8.2,30.29,North,6,12.0,13.0,13,0.00,,,0.00,Wunderground v.1.15,2013-03-05 23:19:00,
2013-03-05 17:24:00,58.9,8.1,30.28,NW,312,11.0,11.0,13,0.00,,,0.00,Wunderground v.1.15,2013-03-05 23:24:00,
2013-03-05 17:29:00,58.7,6.1,30.29,NW,322,13.0,16.0,12,0.00,,,0.00,Wunderground v.1.15,2013-03-05 23:29:00,
2013-03-05 17:39:00,58.3,7.6,30.29,NNW,336,12.0,13.0,13,0.00,,,0.00,Wunderground v.1.15,2013-03-05 23:39:00,
2013-03-05 17:44:00,58.2,9.1,30.29,NNW,344,11.0,11.0,14,0.00,,,0.00,Wunderground v.1.15,2013-03-05 23:44:00,
2013-03-05 17:49:00,57.9,8.9,30.29,NNW,344,10.0,13.0,14,0.00,,,0.00,Wunderground v.1.15,2013-03-05 23:49:00,
2013-03-05 17:54:00,57.7,8.7,30.29,NNW,337,10.0,11.0,14,0.00,,,0.00,Wunderground v.1.15,2013-03-05 23:54:00,
2013-03-05 18:04:00,57.0,9.7,30.29,North,6,8.0,9.0,15,0.00,,,0.00,Wunderground v.1.15,2013-03-06 00:04:00,
2013-03-05 18:09:00,56.7,9.5,30.29,North,355,8.0,9.0,15,0.00,,,0.00,Wunderground v.1.15,2013-03-06 00:09:00,
2013-03-05 18:14:00,56.3,10.6,30.30,NNW,338,8.0,8.0,16,0.00,,,0.00,Wunderground v.1.15,2013-03-06 00:14:00,
2013-03-05 18:24:00,55.2,11.1,30.30,NNW,333,7.0,7.0,17,0.00,,,0.00,Wunderground v.1.15,2013-03-06 00:24:00,
2013-03-05 18:29:00,54.5,10.5,30.30,NW,319,6.0,7.0,17,0.00,,,0.00,Wunderground v.1.15,2013-03-06 00:29:00,
2013-03-05 18:34:00,53.9,11.3,30.30,NW,326,7.0,8.0,18,0.00,,,0.00,Wunderground v.1.15,2013-03-06 00:34:00,
2013-03-05 18:44:00,52.4,11.3,30.30,NNW,341,7.0,7.0,19,0.00,,,0.00,Wunderground v.1.15,2013-03-06 00:44:00,
2013-03-05 18:49:00,52.0,10.9,30.30,NNW,336,7.0,7.0,19,0.00,,,0.00,Wunderground v.1.15,2013-03-06 00:49:00,
2013-03-05 18:54:00,51.4,11.6,30.31,NNW,327,6.0,6.0,20,0.00,,,0.00,Wunderground v.1.15,2013-03-06 00:54:00,
2013-03-05 19:04:00,50.6,10.9,30.31,NW,320,6.0,6.0,20,0.00,,,0.00,Wunderground v.1.15,2013-03-06 01:04:00,
2013-03-05 19:14:00,50.4,11.9,30.32,NW,315,6.0,7.0,21,0.00,,,0.00,Wunderground v.1.15,2013-03-06 01:14:00,
2013-03-05 19:19:00,50.3,11.8,30.32,NW,324,7.0,7.0,21,0.00,,,0.00,Wunderground v.1.15,2013-03-06 01:19:00,
2013-03-05 19:24:00,49.7,12.3,30.32,NNW,331,7.0,7.0,22,0.00,,,0.00,Wunderground v.1.15,2013-03-06 01:24:00,
2013-03-05 19:29:00,49.3,12.0,30.32,NW,323,7.0,7.0,22,0.00,,,0.00,Wunderground v.1.15,2013-03-06 01:29:00,
2013-03-05 19:34:00,49.1,12.8,30.31,NW,319,7.0,7.0,23,0.00,,,0.00,Wunderground v.1.15,2013-03-06 01:34:00,
2013-03-05 19:39:00,48.8,12.6,30.32,NNW,333,7.0,7.0,23,0.00,,,0.00,Wunderground v.1.15,2013-03-06 01:39:00,
2013-03-05 19:49:00,48.2,12.1,30.32,NW,324,6.0,7.0,23,0.00,,,0.00,Wunderground v.1.15,2013-03-06 01:49:00,
2013-03-05 19:54:00,47.7,12.6,30.32,NW,322,6.0,8.0,24,0.00,,,0.00,Wunderground v.1.15,2013-03-06 01:54:00,
2013-03-05 20:04:00,47.6,12.5,30.32,NW,324,6.0,6.0,24,0.00,,,0.00,Wunderground v.1.15,2013-03-06 02:04:00,
2013-03-05 20:14:00,47.2,12.2,30.32,NW,322,6.0,6.0,24,0.00,,,0.00,Wunderground v.1.15,2013-03-06 02:14:00,
2013-03-05 20:19:00,46.8,12.8,30.33,NW,317,6.0,6.0,25,0.00,,,0.00,Wunderground v.1.15,2013-03-06 02:19:00,
2013-03-05 20:24:00,46.4,12.4,30.33,NW,309,5.0,5.0,25,0.00,,,0.00,Wunderground v.1.15,2013-03-06 02:24:00,
2013-03-05 20:29:00,46.7,12.7,30.33,NW,307,5.0,7.0,25,0.00,,,0.00,Wunderground v.1.15,2013-03-06 02:29:00,
2013-03-05 20:34:00,46.7,13.6,30.33,NW,305,6.0,6.0,26,0.00,,,0.00,Wunderground v.1.15,2013-03-06 02:34:00,
2013-03-05 20:44:00,45.9,12.9,30.33,NW,311,6.0,8.0,26,0.00,,,0.00,Wunderground v.1.15,2013-03-06 02:44:00,
2013-03-05 20:49:00,45.7,12.7,30.33,NW,309,7.0,8.0,26,0.00,,,0.00,Wunderground v.1.15,2013-03-06 02:49:00,
2013-03-05 20:54:00,45.6,12.6,30.33,NW,314,7.0,8.0,26,0.00,,,0.00,Wunderground v.1.15,2013-03-06 02:54:00,
2013-03-05 20:59:00,45.6,13.5,30.33,NNW,330,7.0,8.0,27,0.00,,,0.00,Wunderground v.1.15,2013-03-06 02:59:00,
2013-03-05 21:04:00,45.3,13.2,30.33,NW,322,7.0,7.0,27,0.00,,,0.00,Wunderground v.1.15,2013-03-06 03:04:00,
2013-03-05 21:09:00,44.8,12.8,30.33,NW,312,7.0,7.0,27,0.00,,,0.00,Wunderground v.1.15,2013-03-06 03:09:00,
2013-03-05 21:14:00,44.8,12.8,30.33,NW,316,7.0,7.0,27,0.00,,,0.00,Wunderground v.1.15,2013-03-06 03:14:00,
2013-03-05 21:19:00,44.9,13.7,30.33,NW,322,7.0,7.0,28,0.00,,,0.00,Wunderground v.1.15,2013-03-06 03:19:00,
2013-03-05 21:24:00,44.9,13.7,30.34,NW,317,7.0,7.0,28,0.00,,,0.00,Wunderground v.1.15,2013-03-06 03:24:00,
2013-03-05 21:29:00,44.8,13.6,30.34,NW,317,6.0,7.0,28,0.00,,,0.00,Wunderground v.1.15,2013-03-06 03:29:00,
2013-03-05 21:34:00,44.3,13.2,30.34,NW,309,5.0,5.0,28,0.00,,,0.00,Wunderground v.1.15,2013-03-06 03:34:00,
2013-03-05 21:39:00,44.1,13.8,30.34,NW,309,6.0,6.0,29,0.00,,,0.00,Wunderground v.1.15,2013-03-06 03:39:00,
2013-03-05 21:44:00,44.1,13.8,30.35,NW,314,5.0,5.0,29,0.00,,,0.00,Wunderground v.1.15,2013-03-06 03:44:00,
2013-03-05 21:49:00,44.1,13.8,30.35,NW,312,4.0,5.0,29,0.00,,,0.00,Wunderground v.1.15,2013-03-06 03:49:00,
2013-03-05 21:54:00,43.7,14.2,30.35,NW,307,4.0,5.0,30,0.00,,,0.00,Wunderground v.1.15,2013-03-06 03:54:00,
2013-03-05 21:59:00,43.5,14.1,30.35,WNW,303,5.0,6.0,30,0.00,,,0.00,Wunderground v.1.15,2013-03-06 03:59:00,
2013-03-05 22:04:00,43.3,14.6,30.35,WNW,299,6.0,6.0,31,0.00,,,0.00,Wunderground v.1.15,2013-03-06 04:04:00,
2013-03-05 22:09:00,43.7,14.2,30.35,WNW,299,6.0,6.0,30,0.00,,,0.00,Wunderground v.1.15,2013-03-06 04:09:00,
2013-03-05 22:14:00,43.7,13.5,30.36,WNW,295,6.0,6.0,29,0.00,,,0.00,Wunderground v.1.15,2013-03-06 04:14:00,
2013-03-05 22:24:00,43.9,13.6,30.36,WNW,296,7.0,7.0,29,0.00,,,0.00,Wunderground v.1.15,2013-03-06 04:24:00,
2013-03-05 22:29:00,43.6,13.4,30.36,WNW,293,7.0,7.0,29,0.00,,,0.00,Wunderground v.1.15,2013-03-06 04:29:00,
2013-03-05 22:34:00,43.3,13.9,30.37,WNW,288,6.0,6.0,30,0.00,,,0.00,Wunderground v.1.15,2013-03-06 04:34:00,
2013-03-05 22:39:00,43.2,13.8,30.36,WNW,296,6.0,6.0,30,0.00,,,0.00,Wunderground v.1.15,2013-03-06 04:39:00,
2013-03-05 22:44:00,42.5,13.9,30.36,WNW,285,6.0,6.0,31,0.00,,,0.00,Wunderground v.1.15,2013-03-06 04:44:00,
2013-03-05 22:54:00,42.5,13.9,30.37,WNW,285,6.0,6.0,31,0.00,,,0.00,Wunderground v.1.15,2013-03-06 04:54:00,
2013-03-05 22:59:00,41.9,14.1,30.37,West,279,6.0,6.0,32,0.00,,,0.00,Wunderground v.1.15,2013-03-06 04:59:00,
2013-03-05 23:04:00,41.5,14.5,30.37,West,277,6.0,6.0,33,0.00,,,0.00,Wunderground v.1.15,2013-03-06 05:04:00,
2013-03-05 23:09:00,41.3,14.3,30.37,WNW,294,6.0,6.0,33,0.00,,,0.00,Wunderground v.1.15,2013-03-06 05:09:00,
2013-03-05 23:14:00,41.1,14.1,30.37,WNW,285,7.0,7.0,33,0.00,,,0.00,Wunderground v.1.15,2013-03-06 05:14:00,
2013-03-05 23:24:00,41.1,14.1,30.36,WNW,294,7.0,7.0,33,0.00,,,0.00,Wunderground v.1.15,2013-03-06 05:24:00,
2013-03-05 23:29:00,40.7,14.5,30.37,WNW,284,7.0,7.0,34,0.00,,,0.00,Wunderground v.1.15,2013-03-06 05:29:00,
2013-03-05 23:34:00,40.9,14.6,30.37,WNW,291,6.0,6.0,34,0.00,,,0.00,Wunderground v.1.15,2013-03-06 05:34:00,
2013-03-05 23:39:00,40.8,14.6,30.37,WNW,288,6.0,6.0,34,0.00,,,0.00,Wunderground v.1.15,2013-03-06 05:39:00,
2013-03-05 23:44:00,40.4,14.9,30.37,West,279,6.0,6.0,35,0.00,,,0.00,Wunderground v.1.15,2013-03-06 05:44:00,
2013-03-05 23:54:00,40.4,14.9,30.38,West,271,6.0,6.0,35,0.00,,,0.00,Wunderground v.1.15,2013-03-06 05:54:00,
2013-03-05 23:59:00,40.0,15.2,30.38,West,271,7.0,7.0,36,0.00,,,0.00,Wunderground v.1.15,2013-03-06 05:59:00,